You are not logged in, Click here to log in
機場資訊:LPPT Welcome to Taiwan Airways 台灣虛擬航空
ICAO: LPPT Country: 葡萄牙首都里斯本-市郊的波爾特拉
Latitude: 38.7756 Longitude: -9.13537
Total Arrivals: 11 Total Departures: 15
Latest Arrival: FS23 (LEMD-LPPT)ALAN. LIU Latest Departure: TP948 (LPPT-LSGG)ALAN. LIU
Scenery:
METAR : LPPT 141800Z 31008KT 280V350 9999 FEW035 17/09 Q1019

溫貝托·德爾加多機場 LIS